createdAt,value
2023-03-06T00:00:56.804Z,4.43
2023-03-06T00:03:27.962Z,4.28
2023-03-06T00:05:57.565Z,4.15
2023-03-06T00:08:25.788Z,4.88
2023-03-06T00:10:56.551Z,4.85
2023-03-06T00:13:26.635Z,4.80
2023-03-06T00:15:54.705Z,4.45
2023-03-06T00:18:22.537Z,4.45
2023-03-06T00:20:50.331Z,4.97
2023-03-06T00:23:18.011Z,4.30
2023-03-06T00:25:46.875Z,4.73
2023-03-06T00:28:15.936Z,4.05
2023-03-06T00:30:45.926Z,4.72
2023-03-06T00:33:13.853Z,4.05
2023-03-06T00:35:42.209Z,4.85
2023-03-06T00:38:12.961Z,5.20
2023-03-06T00:40:41.093Z,5.03
2023-03-06T00:43:08.998Z,5.53
2023-03-06T00:45:38.592Z,5.25
2023-03-06T00:48:07.378Z,5.20
2023-03-06T00:50:35.607Z,5.77
2023-03-06T00:53:03.362Z,6.22
2023-03-06T00:55:31.190Z,6.43
2023-03-06T00:57:59.080Z,5.93
2023-03-06T01:00:29.280Z,5.65
2023-03-06T01:02:58.448Z,8.13
2023-03-06T01:05:26.729Z,9.02
2023-03-06T01:07:55.083Z,8.25
2023-03-06T01:10:23.496Z,7.20
2023-03-06T01:12:51.550Z,5.80
2023-03-06T01:15:19.126Z,5.83
2023-03-06T01:17:47.203Z,5.10
2023-03-06T01:20:18.611Z,5.28
2023-03-06T01:22:46.449Z,4.63
2023-03-06T01:25:14.478Z,4.97
2023-03-06T01:27:42.074Z,5.40
2023-03-06T01:30:11.004Z,6.00
2023-03-06T01:32:39.053Z,5.38
2023-03-06T01:35:08.917Z,4.10
2023-03-06T01:37:39.296Z,4.50
2023-03-06T01:40:09.355Z,5.07
2023-03-06T01:42:36.929Z,4.90
2023-03-06T01:45:08.239Z,5.07
2023-03-06T01:47:35.816Z,5.35
2023-03-06T01:50:04.792Z,4.90
2023-03-06T01:52:35.935Z,5.37
2023-03-06T01:55:09.433Z,4.22
2023-03-06T01:57:41.422Z,5.25
2023-03-06T02:00:13.025Z,4.85
2023-03-06T02:02:43.295Z,5.80
2023-03-06T02:05:11.301Z,4.57
2023-03-06T02:07:39.913Z,6.07
2023-03-06T02:10:10.210Z,5.60
2023-03-06T02:12:40.240Z,5.20
2023-03-06T02:15:08.652Z,5.55
2023-03-06T02:17:37.213Z,4.67
2023-03-06T02:20:11.400Z,4.97
2023-03-06T02:22:50.882Z,5.93
2023-03-06T02:25:35.085Z,4.75
2023-03-06T02:28:03.781Z,4.70
2023-03-06T02:30:32.076Z,5.00
2023-03-06T02:33:00.330Z,4.82
2023-03-06T02:35:30.358Z,4.28
2023-03-06T02:38:00.430Z,4.30
2023-03-06T02:40:29.918Z,4.18
2023-03-06T02:42:59.372Z,4.57
2023-03-06T02:45:35.020Z,4.90
2023-03-06T02:48:03.170Z,5.63
2023-03-06T02:50:31.476Z,5.15
2023-03-06T02:52:59.390Z,4.28
2023-03-06T02:55:26.995Z,4.90
2023-03-06T02:57:56.280Z,4.50
2023-03-06T03:00:24.306Z,4.38
2023-03-06T03:02:52.429Z,5.10
2023-03-06T03:05:20.245Z,4.68
2023-03-06T03:07:48.175Z,4.43
2023-03-06T03:10:16.753Z,5.68
2023-03-06T03:12:44.620Z,4.60
2023-03-06T03:15:14.007Z,4.57
2023-03-06T03:17:43.036Z,4.90
2023-03-06T03:20:15.048Z,3.80
2023-03-06T03:22:43.224Z,4.22
2023-03-06T03:25:11.579Z,4.50
2023-03-06T03:27:39.186Z,4.53
2023-03-06T03:30:10.296Z,4.85
2023-03-06T03:35:13.528Z,4.60
2023-03-06T03:37:41.846Z,4.63
2023-03-06T03:40:10.885Z,4.72
2023-03-06T03:42:39.021Z,4.45
2023-03-06T03:45:07.893Z,5.03
2023-03-06T03:47:35.942Z,4.15
2023-03-06T03:50:03.812Z,5.18
2023-03-06T03:52:33.041Z,4.28
2023-03-06T03:55:00.724Z,4.65
2023-03-06T03:57:28.666Z,4.70
2023-03-06T03:59:57.025Z,5.03
2023-03-06T04:02:25.652Z,5.00
2023-03-06T04:04:54.077Z,4.53
2023-03-06T04:07:21.971Z,4.72
2023-03-06T04:09:51.359Z,5.30
2023-03-06T04:12:19.593Z,4.95
2023-03-06T04:14:47.374Z,5.13
2023-03-06T04:17:15.363Z,4.40
2023-03-06T04:19:43.266Z,4.50
2023-03-06T04:22:11.076Z,4.73
2023-03-06T04:24:38.876Z,4.40
2023-03-06T04:27:08.186Z,4.65
2023-03-06T04:29:36.025Z,5.20
2023-03-06T04:32:04.264Z,5.10
2023-03-06T04:34:32.490Z,5.70
2023-03-06T04:37:00.434Z,5.38
2023-03-06T04:39:28.792Z,5.60
2023-03-06T04:41:56.859Z,5.07
2023-03-06T04:44:25.940Z,5.35
2023-03-06T04:46:53.870Z,5.33
2023-03-06T04:49:21.931Z,4.97
2023-03-06T04:51:49.698Z,5.47
2023-03-06T04:54:19.048Z,5.45
2023-03-06T04:56:47.214Z,5.18
2023-03-06T04:59:15.103Z,5.97
2023-03-06T05:01:44.487Z,5.70
2023-03-06T05:04:12.417Z,5.15
2023-03-06T05:06:40.312Z,5.18
2023-03-06T05:09:08.511Z,5.85
2023-03-06T05:11:36.289Z,5.13
2023-03-06T05:14:04.450Z,5.72
2023-03-06T05:16:32.314Z,6.22
2023-03-06T05:19:01.467Z,5.53
2023-03-06T05:21:29.297Z,5.95
2023-03-06T05:23:57.173Z,5.77
2023-03-06T05:26:25.293Z,7.75
2023-03-06T05:28:53.571Z,10.43
2023-03-06T05:31:21.460Z,7.57
2023-03-06T05:33:49.561Z,7.13
2023-03-06T05:36:18.797Z,7.17
2023-03-06T05:38:46.650Z,9.10
2023-03-06T05:41:15.766Z,7.35
2023-03-06T05:43:43.510Z,6.25
2023-03-06T05:46:12.421Z,6.15
2023-03-06T05:48:40.337Z,6.87
2023-03-06T05:51:09.637Z,6.63
2023-03-06T05:53:38.557Z,6.32
2023-03-06T05:56:10.123Z,6.60
2023-03-06T05:58:38.420Z,6.45
2023-03-06T06:01:11.345Z,6.50
2023-03-06T06:03:39.355Z,6.07
2023-03-06T06:06:08.124Z,6.75
2023-03-06T06:08:36.198Z,6.22
2023-03-06T06:11:07.748Z,7.38
2023-03-06T06:13:35.988Z,6.83
2023-03-06T06:16:08.527Z,7.03
2023-03-06T06:18:37.286Z,7.65
2023-03-06T06:21:07.383Z,8.25
2023-03-06T06:23:36.540Z,7.20
2023-03-06T06:26:09.119Z,7.63
2023-03-06T06:28:37.328Z,8.45
2023-03-06T06:31:09.594Z,7.38
2023-03-06T06:33:37.284Z,6.82
2023-03-06T06:36:06.118Z,6.25
2023-03-06T06:38:34.878Z,6.80
2023-03-06T06:41:35.703Z,7.82
2023-03-06T06:43:54.085Z,9.48
2023-03-06T06:47:09.310Z,8.88
2023-03-06T06:49:09.772Z,8.80
2023-03-06T06:51:37.841Z,10.70
2023-03-06T06:54:05.613Z,9.48
2023-03-06T06:56:33.461Z,8.88
2023-03-06T06:59:16.200Z,9.63
2023-03-06T07:01:45.128Z,8.77
2023-03-06T07:04:14.092Z,8.43
2023-03-06T07:06:42.252Z,9.90
2023-03-06T07:09:10.734Z,10.27
2023-03-06T07:11:39.424Z,9.68
2023-03-06T07:14:09.300Z,11.10
2023-03-06T07:16:37.149Z,10.00
2023-03-06T07:19:05.118Z,9.55
2023-03-06T07:21:33.133Z,8.77
2023-03-06T07:24:00.978Z,8.07
2023-03-06T07:26:32.084Z,9.25
2023-03-06T07:29:01.634Z,9.10
2023-03-06T07:31:30.813Z,8.60
2023-03-06T07:33:58.632Z,9.57
2023-03-06T07:36:26.434Z,9.32
2023-03-06T07:38:54.147Z,8.07
2023-03-06T07:41:22.791Z,13.13
2023-03-06T07:43:51.212Z,8.60
2023-03-06T07:46:19.628Z,7.90
2023-03-06T07:48:48.810Z,7.93
2023-03-06T07:51:18.534Z,8.52
2023-03-06T07:53:46.570Z,8.63
2023-03-06T07:56:14.580Z,9.02
2023-03-06T07:58:44.045Z,7.78
2023-03-06T08:01:14.385Z,7.60
2023-03-06T08:03:42.420Z,7.43
2023-03-06T08:06:13.611Z,7.87
2023-03-06T08:08:43.676Z,7.95
2023-03-06T08:11:12.725Z,7.07
2023-03-06T08:13:40.732Z,7.85
2023-03-06T08:16:09.603Z,7.72
2023-03-06T08:18:39.561Z,6.80
2023-03-06T08:21:09.428Z,7.10
2023-03-06T08:23:38.509Z,6.90
2023-03-06T08:26:07.959Z,7.18
2023-03-06T08:28:36.749Z,6.80
2023-03-06T08:31:09.678Z,6.90
2023-03-06T08:33:37.421Z,7.47
2023-03-06T08:36:05.795Z,6.60
2023-03-06T08:38:33.812Z,6.40
2023-03-06T08:41:03.009Z,7.00
2023-03-06T08:43:31.111Z,6.53
2023-03-06T08:45:59.737Z,6.35
2023-03-06T08:48:27.637Z,6.03
2023-03-06T08:50:55.293Z,6.88
2023-03-06T08:53:33.461Z,6.20
2023-03-06T08:56:16.799Z,6.00
2023-03-06T08:58:44.789Z,5.95
2023-03-06T09:01:15.015Z,6.18
2023-03-06T09:03:42.611Z,6.05
2023-03-06T09:06:10.812Z,6.07
2023-03-06T09:08:38.500Z,6.73
2023-03-06T09:11:06.074Z,5.80
2023-03-06T09:13:35.338Z,5.47
2023-03-06T09:16:03.306Z,5.43
2023-03-06T09:18:30.919Z,4.97
2023-03-06T09:20:59.114Z,5.20
2023-03-06T09:23:26.940Z,5.13
2023-03-06T09:25:55.226Z,4.95
2023-03-06T09:28:23.116Z,5.45
2023-03-06T09:30:52.108Z,5.47
2023-03-06T09:33:20.689Z,4.90
2023-03-06T09:35:51.032Z,5.50
2023-03-06T09:38:18.974Z,4.88
2023-03-06T09:41:05.382Z,4.78
2023-03-06T09:43:36.598Z,6.75
2023-03-06T09:46:20.081Z,6.10
2023-03-06T09:49:01.079Z,5.03
2023-03-06T09:51:37.593Z,5.18
2023-03-06T09:54:13.296Z,5.57
2023-03-06T09:56:47.284Z,5.20
2023-03-06T09:59:19.621Z,5.17
2023-03-06T10:01:58.568Z,4.75
2023-03-06T10:04:39.835Z,4.75
2023-03-06T10:07:14.535Z,5.55
2023-03-06T10:09:47.706Z,5.38
2023-03-06T10:12:24.814Z,5.40
2023-03-06T10:15:08.163Z,4.82
2023-03-06T10:17:42.550Z,5.43
2023-03-06T10:20:17.618Z,5.45
2023-03-06T10:23:01.092Z,4.80
2023-03-06T10:25:34.001Z,4.57
2023-03-06T10:28:11.021Z,4.43
2023-03-06T10:30:44.310Z,5.10
2023-03-06T10:33:22.857Z,5.20
2023-03-06T10:35:52.299Z,6.05
2023-03-06T10:38:22.641Z,6.47
2023-03-06T10:41:00.595Z,7.53
2023-03-06T10:43:28.908Z,5.22
2023-03-06T10:45:56.524Z,4.15
2023-03-06T10:48:27.758Z,5.35
2023-03-06T10:51:18.536Z,5.17
2023-03-06T10:53:54.175Z,4.15
2023-03-06T10:56:33.352Z,5.32
2023-03-06T10:59:13.649Z,5.00
2023-03-06T11:01:42.557Z,4.95
2023-03-06T11:04:25.033Z,5.47
2023-03-06T11:07:14.916Z,6.10
2023-03-06T11:09:44.273Z,5.22
2023-03-06T11:12:22.608Z,4.60
2023-03-06T11:15:09.538Z,4.93
2023-03-06T11:17:39.753Z,5.17
2023-03-06T11:20:22.996Z,5.18
2023-03-06T11:22:56.296Z,4.60
2023-03-06T11:25:28.693Z,5.13
2023-03-06T11:28:03.316Z,4.80
2023-03-06T11:30:36.896Z,4.70
2023-03-06T11:33:12.140Z,5.03
2023-03-06T11:35:50.350Z,5.32
2023-03-06T11:38:22.816Z,5.78
2023-03-06T11:40:54.773Z,6.00
2023-03-06T11:43:26.535Z,5.70
2023-03-06T11:46:00.467Z,5.53
2023-03-06T11:48:32.114Z,6.75
2023-03-06T11:51:08.461Z,6.38
2023-03-06T11:53:40.691Z,7.13
2023-03-06T11:56:30.542Z,8.57
2023-03-06T11:59:08.063Z,6.95
2023-03-06T12:01:39.941Z,7.35
2023-03-06T12:04:27.308Z,7.53
2023-03-06T12:07:07.551Z,6.57
2023-03-06T12:09:47.038Z,7.57
2023-03-06T12:12:26.378Z,6.75
2023-03-06T12:15:07.934Z,7.10
2023-03-06T12:17:54.717Z,7.13
2023-03-06T12:20:39.333Z,7.20
2023-03-06T12:23:17.996Z,8.30
2023-03-06T12:25:53.307Z,14.07
2023-03-06T12:28:35.087Z,9.32
2023-03-06T12:31:18.805Z,8.57
2023-03-06T12:33:58.347Z,8.60
2023-03-06T12:36:36.792Z,8.97
2023-03-06T12:39:11.534Z,7.53
2023-03-06T12:41:47.821Z,8.07
2023-03-06T12:44:32.020Z,8.52
2023-03-06T12:47:04.154Z,6.97
2023-03-06T12:49:38.562Z,7.80
2023-03-06T12:52:09.696Z,6.68
2023-03-06T12:54:41.881Z,6.20
2023-03-06T12:57:12.112Z,6.55
2023-03-06T12:59:47.110Z,6.88
2023-03-06T13:02:55.769Z,5.90
2023-03-06T13:06:08.217Z,7.03
2023-03-06T13:09:13.211Z,5.63
2023-03-06T13:12:25.435Z,5.95
2023-03-06T13:15:00.510Z,5.68
2023-03-06T13:17:39.789Z,5.37
2023-03-06T13:20:44.640Z,5.95
2023-03-06T13:23:49.389Z,7.25
2023-03-06T13:26:52.033Z,5.82
2023-03-06T13:30:02.799Z,6.00
2023-03-06T13:32:43.676Z,5.53
2023-03-06T13:35:48.697Z,4.43
2023-03-06T13:38:35.208Z,5.00
2023-03-06T13:41:34.668Z,5.40
2023-03-06T13:44:04.061Z,6.43
2023-03-06T13:46:35.315Z,5.30
2023-03-06T13:49:18.368Z,5.78
2023-03-06T13:52:06.040Z,4.53
2023-03-06T13:54:47.030Z,5.13
2023-03-06T13:57:36.380Z,5.38
2023-03-06T14:00:26.361Z,5.13
2023-03-06T14:03:20.487Z,6.00
2023-03-06T14:05:50.967Z,5.40
2023-03-06T14:08:20.609Z,4.55
2023-03-06T14:10:50.622Z,5.30
2023-03-06T14:13:23.007Z,5.40
2023-03-06T14:15:53.234Z,5.22
2023-03-06T14:18:23.741Z,4.15
2023-03-06T14:20:58.190Z,4.60
2023-03-06T14:23:38.032Z,4.10
2023-03-06T14:26:15.546Z,4.40
2023-03-06T14:28:44.503Z,4.32
2023-03-06T14:31:18.146Z,3.92
2023-03-06T14:33:52.199Z,5.22
2023-03-06T14:36:23.499Z,4.78
2023-03-06T14:38:53.466Z,4.50
2023-03-06T14:41:27.046Z,5.93
2023-03-06T14:44:09.151Z,6.13
2023-03-06T14:46:37.329Z,5.32
2023-03-06T14:49:08.114Z,6.68
2023-03-06T14:51:42.929Z,5.43
2023-03-06T14:54:17.500Z,6.55
2023-03-06T14:56:48.202Z,7.68
2023-03-06T14:59:21.611Z,58.65
2023-03-06T15:02:15.052Z,33.67
2023-03-06T15:04:46.595Z,13.17
2023-03-06T15:07:19.959Z,21.48
2023-03-06T15:09:50.432Z,15.27
2023-03-06T15:12:35.642Z,11.15
2023-03-06T15:15:06.071Z,6.85
2023-03-06T15:17:40.969Z,6.20
2023-03-06T15:20:42.656Z,5.93
2023-03-06T15:23:23.249Z,6.40
2023-03-06T15:25:52.895Z,6.20
2023-03-06T15:28:27.020Z,6.13
2023-03-06T15:31:21.928Z,6.20
2023-03-06T15:34:23.695Z,6.90
2023-03-06T15:36:55.224Z,7.47
2023-03-06T15:39:38.144Z,7.15
2023-03-06T15:42:19.049Z,10.68
2023-03-06T15:44:53.179Z,11.67
2023-03-06T15:47:20.977Z,8.80
2023-03-06T15:49:51.888Z,8.98
2023-03-06T15:52:21.936Z,7.05
2023-03-06T15:54:50.023Z,6.80
2023-03-06T15:57:23.507Z,7.23
2023-03-06T15:59:51.805Z,6.95
2023-03-06T16:02:21.105Z,7.43
2023-03-06T16:04:49.489Z,7.55
2023-03-06T16:07:17.202Z,6.82
2023-03-06T16:09:46.497Z,9.63
2023-03-06T16:12:17.799Z,9.43
2023-03-06T16:14:47.269Z,7.75
2023-03-06T16:17:15.656Z,7.40
2023-03-06T16:19:44.198Z,7.63
2023-03-06T16:22:13.653Z,9.27
2023-03-06T16:24:42.112Z,8.23
2023-03-06T16:27:17.862Z,9.98
2023-03-06T16:29:45.560Z,9.68
2023-03-06T16:32:13.226Z,8.93
2023-03-06T16:34:40.779Z,10.07
2023-03-06T16:37:12.038Z,10.20
2023-03-06T16:39:40.036Z,11.77
2023-03-06T16:42:07.873Z,13.00
2023-03-06T16:44:36.772Z,14.25
2023-03-06T16:47:04.739Z,12.80
2023-03-06T16:49:32.405Z,12.73
2023-03-06T16:52:00.119Z,8.60
2023-03-06T16:54:27.824Z,8.48
2023-03-06T16:56:55.676Z,7.38
2023-03-06T16:59:25.008Z,10.37
2023-03-06T17:01:54.595Z,9.80
2023-03-06T17:04:22.298Z,9.88
2023-03-06T17:06:49.843Z,8.90
2023-03-06T17:09:17.552Z,8.77
2023-03-06T17:11:46.747Z,10.13
2023-03-06T17:14:14.371Z,12.50
2023-03-06T17:16:42.666Z,11.77
2023-03-06T17:19:14.324Z,9.38
2023-03-06T17:21:41.959Z,10.30
2023-03-06T17:24:09.853Z,9.53
2023-03-06T17:26:38.741Z,7.55
2023-03-06T17:29:07.208Z,8.63
2023-03-06T17:31:35.226Z,9.43
2023-03-06T17:34:02.869Z,10.80
2023-03-06T17:36:32.637Z,9.67
2023-03-06T17:39:03.120Z,8.38
2023-03-06T17:41:32.720Z,8.80
2023-03-06T17:44:01.635Z,8.70
2023-03-06T17:46:29.522Z,7.82
2023-03-06T17:48:57.182Z,7.50
2023-03-06T17:51:25.023Z,8.13
2023-03-06T17:53:54.075Z,7.05
2023-03-06T17:56:21.788Z,7.63
2023-03-06T17:58:49.788Z,7.75
2023-03-06T18:01:19.690Z,8.50
2023-03-06T18:03:51.461Z,8.13
2023-03-06T18:06:20.641Z,9.32
2023-03-06T18:08:51.025Z,9.55
2023-03-06T18:11:22.231Z,10.32
2023-03-06T18:13:50.098Z,8.23
2023-03-06T18:16:20.039Z,9.57
2023-03-06T18:18:51.988Z,10.02
2023-03-06T18:21:20.992Z,10.75
2023-03-06T18:23:50.992Z,10.45
2023-03-06T18:26:22.242Z,9.87
2023-03-06T18:28:53.398Z,9.45
2023-03-06T18:31:24.821Z,9.18
2023-03-06T18:33:53.150Z,8.70
2023-03-06T18:36:23.231Z,11.05
2023-03-06T18:38:51.858Z,9.63
2023-03-06T18:41:23.044Z,8.63
2023-03-06T18:43:53.738Z,8.95
2023-03-06T18:46:21.842Z,9.20
2023-03-06T18:48:49.704Z,9.13
2023-03-06T18:51:18.001Z,12.87
2023-03-06T18:53:46.225Z,11.52
2023-03-06T18:56:18.062Z,10.32
2023-03-06T18:58:51.143Z,10.82
2023-03-06T19:01:19.386Z,9.80
2023-03-06T19:03:47.992Z,8.67
2023-03-06T19:06:17.923Z,8.93
2023-03-06T19:08:45.998Z,8.60
2023-03-06T19:11:16.030Z,8.40
2023-03-06T19:13:44.852Z,8.38
2023-03-06T19:16:20.049Z,8.97
2023-03-06T19:18:48.322Z,11.32
2023-03-06T19:21:17.893Z,8.05
2023-03-06T19:23:45.689Z,8.85
2023-03-06T19:26:14.177Z,8.80
2023-03-06T19:28:43.273Z,8.80
2023-03-06T19:31:13.551Z,9.75
2023-03-06T19:33:44.128Z,11.23
2023-03-06T19:36:14.795Z,8.30
2023-03-06T19:38:43.330Z,9.05
2023-03-06T19:41:13.485Z,9.57
2023-03-06T19:43:41.889Z,8.60
2023-03-06T19:46:12.890Z,9.80
2023-03-06T19:48:42.367Z,9.63
2023-03-06T19:51:12.562Z,9.60
2023-03-06T19:53:41.133Z,8.53
2023-03-06T19:56:10.920Z,8.77
2023-03-06T19:58:40.520Z,10.00
2023-03-06T20:01:10.779Z,10.05
2023-03-06T20:03:39.327Z,9.00
2023-03-06T20:06:12.975Z,8.47
2023-03-06T20:08:40.696Z,8.85
2023-03-06T20:11:08.842Z,9.75
2023-03-06T20:13:38.158Z,8.50
2023-03-06T20:16:07.160Z,8.88
2023-03-06T20:18:34.993Z,9.97
2023-03-06T20:21:04.887Z,8.23
2023-03-06T20:23:35.076Z,9.27
2023-03-06T20:26:03.700Z,9.20
2023-03-06T20:28:31.879Z,9.25
2023-03-06T20:30:59.768Z,10.20
2023-03-06T20:33:27.780Z,9.88
2023-03-06T20:35:55.511Z,9.60
2023-03-06T20:38:23.364Z,9.23
2023-03-06T20:40:54.609Z,9.55
2023-03-06T20:43:22.345Z,8.63
2023-03-06T20:45:58.039Z,9.18
2023-03-06T20:48:26.079Z,7.88
2023-03-06T20:51:01.649Z,7.75
2023-03-06T20:53:29.790Z,8.88
2023-03-06T20:55:58.716Z,8.10
2023-03-06T20:58:30.164Z,8.00
2023-03-06T21:00:58.212Z,9.23
2023-03-06T21:03:26.477Z,8.10
2023-03-06T21:05:54.340Z,8.40
2023-03-06T21:08:24.772Z,9.20
2023-03-06T21:10:53.090Z,7.57
2023-03-06T21:13:22.251Z,7.80
2023-03-06T21:15:50.116Z,8.45
2023-03-06T21:18:17.987Z,8.90
2023-03-06T21:20:45.613Z,8.57
2023-03-06T21:23:13.659Z,8.23
2023-03-06T21:25:48.810Z,7.07
2023-03-06T21:28:17.254Z,8.07
2023-03-06T21:30:47.033Z,8.10
2023-03-06T21:33:16.055Z,9.10
2023-03-06T21:35:45.279Z,8.40
2023-03-06T21:38:14.247Z,8.45
2023-03-06T21:40:45.056Z,7.72
2023-03-06T21:43:12.856Z,7.85
2023-03-06T21:45:46.467Z,9.00
2023-03-06T21:48:14.997Z,8.25
2023-03-06T21:50:43.113Z,8.13
2023-03-06T21:53:10.766Z,7.57
2023-03-06T21:55:40.367Z,8.77
2023-03-06T21:58:08.495Z,7.60
2023-03-06T22:00:36.835Z,7.10
2023-03-06T22:03:06.632Z,7.75
2023-03-06T22:05:34.634Z,7.07
2023-03-06T22:08:02.523Z,7.70
2023-03-06T22:10:30.417Z,7.67
2023-03-06T22:12:58.396Z,7.57
2023-03-06T22:15:28.607Z,7.47
2023-03-06T22:17:56.301Z,6.60
2023-03-06T22:20:26.185Z,7.22
2023-03-06T22:22:53.915Z,6.43
2023-03-06T22:25:21.717Z,6.32
2023-03-06T22:27:49.538Z,6.45
2023-03-06T22:30:18.238Z,6.50
2023-03-06T22:32:45.870Z,6.18
2023-03-06T22:35:13.535Z,7.37
2023-03-06T22:37:42.957Z,6.30
2023-03-06T22:40:12.113Z,5.95
2023-03-06T22:42:39.731Z,5.93
2023-03-06T22:45:08.831Z,6.35
2023-03-06T22:47:39.470Z,7.23
2023-03-06T22:50:08.557Z,6.40
2023-03-06T22:52:36.803Z,6.07
2023-03-06T22:55:07.365Z,5.80
2023-03-06T22:57:35.197Z,6.65
2023-03-06T23:00:03.677Z,5.87
2023-03-06T23:02:35.800Z,5.95
2023-03-06T23:05:03.900Z,5.68
2023-03-06T23:07:31.942Z,6.22
2023-03-06T23:10:00.026Z,6.32
2023-03-06T23:12:29.060Z,5.50
2023-03-06T23:14:57.047Z,5.88
2023-03-06T23:17:24.926Z,5.32
2023-03-06T23:19:53.286Z,5.18
2023-03-06T23:22:21.387Z,5.93
2023-03-06T23:24:49.594Z,5.97
2023-03-06T23:27:17.397Z,5.85
2023-03-06T23:29:46.341Z,5.75
2023-03-06T23:32:14.307Z,5.90
2023-03-06T23:34:42.081Z,6.18
2023-03-06T23:37:10.441Z,5.83
2023-03-06T23:39:38.285Z,5.40
2023-03-06T23:42:06.455Z,5.82
2023-03-06T23:44:35.506Z,5.68
2023-03-06T23:47:04.821Z,6.13
2023-03-06T23:49:32.751Z,6.20
2023-03-06T23:52:00.411Z,5.40
2023-03-06T23:54:28.224Z,5.25
2023-03-06T23:56:56.223Z,6.18
2023-03-06T23:59:24.358Z,6.28
